Terminal Aerodrome Forecast
Issued by NWS Charleston, WV

Current Version | Previous Version | Graphics & Text | Print | Product List | Glossary On
Versions: 1 2 3 4 5 6 7 8 9 10 11 12 13 14 15 16 17 18 19 20 21 22 23 24 25 26
000
FTUS41 KRLX 291120
TAFPKB
TAF
KPKB 291120Z 2912/3012 00000KT 1/4SM FG VV001
     FM291300 00000KT 5SM HZ FEW050
     FM291500 00000KT P6SM FEW050
     FM300200 00000KT P6SM BKN060
     FM300500 00000KT P6SM VCTS BKN060CB
     FM301000 00000KT 3SM BR BKN040=

USA.gov is the U.S. government's official web portal to all federal, state and local government web resources and services.